Time;durP1;ratioP1;P1;durP2;ratioP2;P2;SDS_P1;SDS_P2;PMS_P1;PMS_P2;Temp;Humidity;BMP_temperature;BMP_pressure;BME280_temperature;BME280_humidity;BME280_pressure;Samples;Min_cycle;Max_cycle;Signal;HPM_P1;HPM_P2
2023/07/11 00:00:59;;;;;;;11.32;9.32;;;24.70;52.00;;;;;;6113080;23;114049;-79
2023/07/11 00:03:26;;;;;;;10.32;8.00;;;24.80;52.50;;;;;;6112936;23;115384;-78
2023/07/11 00:06:01;;;;;;;9.80;8.80;;;24.70;51.60;;;;;;6087185;23;115529;-79
2023/07/11 00:08:29;;;;;;;10.77;9.57;;;24.80;53.00;;;;;;6112616;23;114303;-79
2023/07/11 00:10:56;;;;;;;11.20;9.85;;;24.70;53.10;;;;;;6088398;23;114304;-79
2023/07/11 00:13:24;;;;;;;11.32;9.13;;;24.60;53.60;;;;;;6111595;23;114887;-80
2023/07/11 00:15:59;;;;;;;9.20;7.85;;;24.50;53.20;;;;;;6112554;23;117756;-79
2023/07/11 00:18:26;;;;;;;9.75;8.60;;;24.50;52.40;;;;;;6114136;23;114281;-78
2023/07/11 00:20:53;;;;;;;9.75;8.63;;;24.40;52.70;;;;;;6112569;23;114212;-78
2023/07/11 00:23:21;;;;;;;8.45;7.55;;;24.40;52.80;;;;;;6112521;23;115653;-79
2023/07/11 00:25:48;;;;;;;9.45;8.15;;;24.50;52.30;;;;;;6112029;22;115245;-79
2023/07/11 00:28:15;;;;;;;10.20;8.05;;;24.60;52.20;;;;;;6113010;22;114187;-78
2023/07/11 00:30:43;;;;;;;9.55;8.55;;;24.60;52.10;;;;;;6114205;23;114032;-78
2023/07/11 00:33:10;;;;;;;9.80;8.00;;;24.60;52.40;;;;;;6136376;22;115262;-79
2023/07/11 00:35:38;;;;;;;8.90;7.30;;;24.60;51.90;;;;;;6111677;23;116193;-78
2023/07/11 00:38:05;;;;;;;9.63;8.63;;;24.70;51.80;;;;;;6088161;23;114241;-79
2023/07/11 00:40:32;;;;;;;15.25;11.85;;;24.70;51.90;;;;;;6138055;22;114764;-78
2023/07/11 00:43:01;;;;;;;9.13;7.93;;;24.80;53.00;;;;;;6111509;23;115164;-79
2023/07/11 00:46:07;;;;;;;10.00;8.68;;;24.80;51.80;;;;;;6113388;23;114609;-79
2023/07/11 00:48:37;;;;;;;10.82;8.48;;;24.90;51.30;;;;;;6113455;22;114116;-79
2023/07/11 00:51:08;;;;;;;10.93;8.35;;;24.80;51.50;;;;;;6114212;23;114065;-79
2023/07/11 00:53:36;;;;;;;8.70;7.80;;;24.90;51.80;;;;;;6111140;23;115164;-78
2023/07/11 00:56:04;;;;;;;8.60;7.68;;;24.90;51.30;;;;;;6111359;23;115372;-77
2023/07/11 00:58:32;;;;;;;10.85;8.63;;;24.90;51.10;;;;;;6113066;22;114275;-78
2023/07/11 01:00:59;;;;;;;10.45;8.55;;;24.90;52.10;;;;;;6112550;23;114080;-77
2023/07/11 01:03:26;;;;;;;9.50;8.52;;;24.90;51.50;;;;;;6111570;23;115874;-78
2023/07/11 01:05:57;;;;;;;9.68;8.65;;;25.00;51.90;;;;;;6113500;23;115795;-78
2023/07/11 01:08:24;;;;;;;11.05;8.32;;;25.00;52.10;;;;;;6114416;23;114177;-78
2023/07/11 01:10:51;;;;;;;10.82;8.27;;;25.00;51.50;;;;;;6112784;23;114147;-78
2023/07/11 01:13:19;;;;;;;9.43;8.43;;;25.00;51.20;;;;;;6136108;22;114935;-77
2023/07/11 01:15:46;;;;;;;9.38;8.38;;;25.00;51.00;;;;;;6113268;23;114553;-78
2023/07/11 01:18:13;;;;;;;10.85;9.10;;;25.00;51.40;;;;;;6113666;23;113948;-77
2023/07/11 01:20:41;;;;;;;10.40;9.30;;;25.00;51.90;;;;;;6113337;22;114269;-77
2023/07/11 01:23:08;;;;;;;11.90;8.60;;;25.00;51.70;;;;;;6111874;22;116184;-79
2023/07/11 01:25:36;;;;;;;11.73;8.63;;;24.90;51.30;;;;;;6113311;23;114664;-78
2023/07/11 01:28:03;;;;;;;11.38;8.85;;;24.90;51.90;;;;;;6112702;23;114235;-78
2023/07/11 01:30:30;;;;;;;10.15;7.65;;;24.90;51.80;;;;;;6088738;23;114363;-78
2023/07/11 01:32:57;;;;;;;12.48;10.90;;;24.90;51.40;;;;;;6113748;23;114737;-78
2023/07/11 01:35:25;;;;;;;13.30;11.85;;;24.80;52.70;;;;;;6113201;23;114618;-78
2023/07/11 01:37:54;;;;;;;9.32;8.30;;;24.80;53.60;;;;;;6114097;23;114104;-77
2023/07/11 01:40:21;;;;;;;11.02;9.00;;;24.70;52.10;;;;;;6138375;22;114318;-78
2023/07/11 01:42:49;;;;;;;11.27;9.40;;;24.80;52.20;;;;;;6111983;23;114860;-78
2023/07/11 01:45:16;;;;;;;13.10;8.55;;;24.80;51.90;;;;;;6111700;23;114672;-78
2023/07/11 01:47:43;;;;;;;12.88;9.45;;;24.80;51.90;;;;;;6111828;23;114258;-78
2023/07/11 01:50:10;;;;;;;11.57;8.13;;;24.80;52.10;;;;;;6112622;23;114809;-78
2023/07/11 01:52:37;;;;;;;10.50;8.63;;;24.80;51.60;;;;;;6113377;23;114985;-78
2023/07/11 01:55:07;;;;;;;9.80;8.38;;;24.90;51.80;;;;;;6113717;23;114571;-78
2023/07/11 01:57:34;;;;;;;8.98;8.07;;;24.90;51.70;;;;;;6113252;22;114082;-78
2023/07/11 02:00:02;;;;;;;9.43;8.45;;;24.90;51.80;;;;;;6088085;23;114306;-77
2023/07/11 02:02:31;;;;;;;10.68;9.10;;;24.90;51.70;;;;;;6111250;23;116682;-78
2023/07/11 02:04:58;;;;;;;11.45;9.88;;;24.90;51.80;;;;;;6136732;22;115106;-78
2023/07/11 02:07:26;;;;;;;11.27;9.05;;;24.90;52.20;;;;;;6114003;23;114956;-78
2023/07/11 02:09:53;;;;;;;10.55;8.73;;;24.90;51.50;;;;;;6112327;23;114161;-77
2023/07/11 02:12:20;;;;;;;10.18;8.20;;;24.90;51.70;;;;;;6113241;22;115187;-78
2023/07/11 02:14:47;;;;;;;9.27;8.32;;;24.90;51.50;;;;;;6111664;22;114647;-78
2023/07/11 02:17:14;;;;;;;11.43;8.88;;;24.90;51.40;;;;;;6114023;23;114265;-77
2023/07/11 02:19:42;;;;;;;9.18;7.85;;;25.00;51.60;;;;;;6114113;22;114030;-77
2023/07/11 02:22:09;;;;;;;10.93;9.18;;;25.00;51.50;;;;;;6112539;23;114902;-77
2023/07/11 02:24:36;;;;;;;9.55;8.32;;;25.00;51.50;;;;;;6136839;22;116023;-77
2023/07/11 02:27:06;;;;;;;11.82;8.85;;;25.00;51.30;;;;;;6113016;23;114371;-78
2023/07/11 02:29:35;;;;;;;9.68;8.45;;;25.00;51.80;;;;;;6113896;23;114317;-78
2023/07/11 02:32:02;;;;;;;10.80;8.38;;;25.00;51.60;;;;;;6112919;23;114914;-78
2023/07/11 02:34:29;;;;;;;10.85;8.60;;;25.00;51.40;;;;;;6135556;22;114773;-78
2023/07/11 02:36:56;;;;;;;12.57;9.23;;;24.90;51.50;;;;;;6114127;23;113855;-77
2023/07/11 02:39:23;;;;;;;10.57;8.57;;;24.90;52.30;;;;;;6113932;23;114454;-77
2023/07/11 02:41:50;;;;;;;10.23;8.68;;;24.90;51.60;;;;;;6113283;23;115781;-77
2023/07/11 02:44:18;;;;;;;11.95;8.32;;;24.80;51.80;;;;;;6113611;23;114659;-78
2023/07/11 02:46:45;;;;;;;11.30;8.52;;;24.90;51.60;;;;;;6113957;22;114426;-78
2023/07/11 02:49:12;;;;;;;10.80;8.80;;;24.90;51.50;;;;;;6087488;23;114381;-77
2023/07/11 02:51:40;;;;;;;10.23;8.63;;;24.90;51.50;;;;;;6111990;22;114879;-78
2023/07/11 02:54:07;;;;;;;10.23;8.80;;;24.90;51.60;;;;;;6113026;23;114379;-78
2023/07/11 02:56:34;;;;;;;10.32;8.35;;;24.90;51.70;;;;;;6087708;23;114288;-78
2023/07/11 02:59:01;;;;;;;9.68;8.57;;;24.90;51.60;;;;;;6113745;23;114093;-79
2023/07/11 03:01:34;;;;;;;10.20;8.43;;;24.90;51.50;;;;;;6111096;22;115115;-79
2023/07/11 03:04:02;;;;;;;11.13;8.68;;;25.00;51.40;;;;;;6112443;22;114693;-77
2023/07/11 03:06:29;;;;;;;9.98;8.45;;;25.00;51.70;;;;;;6112422;23;114270;-77
2023/07/11 03:08:56;;;;;;;9.23;8.05;;;25.00;51.50;;;;;;6113951;23;114156;-77
2023/07/11 03:11:23;;;;;;;10.27;8.70;;;25.00;51.40;;;;;;6114237;23;115385;-77
2023/07/11 03:13:50;;;;;;;12.88;11.27;;;25.00;51.50;;;;;;6112713;23;115977;-77
2023/07/11 03:16:18;;;;;;;9.75;8.00;;;25.00;52.60;;;;;;6114418;23;114168;-78
2023/07/11 03:18:45;;;;;;;10.18;7.95;;;25.00;51.60;;;;;;6115287;23;114291;-78
2023/07/11 03:21:12;;;;;;;11.50;8.30;;;24.90;51.40;;;;;;6114325;22;115003;-77
2023/07/11 03:23:39;;;;;;;10.48;7.57;;;25.00;51.50;;;;;;6112330;23;114734;-77
2023/07/11 03:26:06;;;;;;;10.45;8.50;;;25.00;51.50;;;;;;6115225;23;114079;-77
2023/07/11 03:28:34;;;;;;;9.68;7.85;;;25.00;51.50;;;;;;6115000;23;114036;-77
2023/07/11 03:31:01;;;;;;;9.52;7.82;;;24.90;51.40;;;;;;6113381;23;115493;-77
2023/07/11 03:33:28;;;;;;;10.95;7.88;;;24.80;51.40;;;;;;6111821;23;114612;-78
2023/07/11 03:35:55;;;;;;;9.23;7.63;;;24.80;51.60;;;;;;6115570;23;114117;-78
2023/07/11 03:38:23;;;;;;;9.05;8.00;;;24.80;51.50;;;;;;6113399;23;114387;-78
2023/07/11 03:40:52;;;;;;;9.80;7.53;;;24.80;51.50;;;;;;6087970;23;116194;-78
2023/07/11 03:43:21;;;;;;;8.40;7.18;;;24.70;51.60;;;;;;6112667;23;114794;-78
2023/07/11 03:45:48;;;;;;;9.43;7.82;;;24.80;51.60;;;;;;6138355;22;114441;-78
2023/07/11 03:48:16;;;;;;;9.20;6.93;;;24.80;51.70;;;;;;6114654;23;114064;-78
2023/07/11 03:50:44;;;;;;;8.27;7.05;;;24.80;51.40;;;;;;6112985;23;115032;-78
2023/07/11 03:53:12;;;;;;;10.23;7.90;;;24.80;51.30;;;;;;6113278;23;114711;-78
2023/07/11 03:55:41;;;;;;;9.52;7.68;;;24.80;51.50;;;;;;6114318;23;114231;-77
2023/07/11 03:58:08;;;;;;;8.35;7.50;;;24.80;51.40;;;;;;6113577;23;114373;-78
2023/07/11 04:00:36;;;;;;;10.77;8.10;;;24.70;51.50;;;;;;6113307;23;115037;-78
2023/07/11 04:03:03;;;;;;;10.45;7.53;;;24.60;51.70;;;;;;6113277;23;115197;-78
2023/07/11 04:05:30;;;;;;;8.27;7.28;;;24.70;51.90;;;;;;6112017;23;114129;-78
2023/07/11 04:07:58;;;;;;;10.40;7.75;;;24.60;51.60;;;;;;6114580;23;114289;-78
2023/07/11 04:10:25;;;;;;;10.18;7.57;;;24.70;52.00;;;;;;6113329;23;115919;-77
2023/07/11 04:12:52;;;;;;;10.80;8.07;;;24.90;51.60;;;;;;6114331;23;115096;-78
2023/07/11 04:15:19;;;;;;;9.20;7.35;;;25.00;51.40;;;;;;6114705;23;114182;-78
2023/07/11 04:17:46;;;;;;;9.38;7.43;;;25.30;50.70;;;;;;6114307;22;113991;-78
2023/07/11 04:20:13;;;;;;;9.43;7.68;;;25.40;50.40;;;;;;6112351;23;114824;-78
2023/07/11 04:22:40;;;;;;;10.95;7.90;;;25.60;50.60;;;;;;6112250;23;114443;-78
2023/07/11 04:25:08;;;;;;;9.45;7.70;;;25.60;50.00;;;;;;6115812;23;114123;-78
2023/07/11 04:27:35;;;;;;;11.63;7.95;;;25.40;50.30;;;;;;6114909;23;114080;-78
2023/07/11 04:30:03;;;;;;;10.50;8.30;;;25.30;50.40;;;;;;6087219;23;114923;-78
2023/07/11 04:32:30;;;;;;;9.35;7.78;;;25.20;50.70;;;;;;6113430;23;115135;-78
2023/07/11 04:34:57;;;;;;;9.32;7.60;;;25.10;50.50;;;;;;6114952;22;114231;-78
2023/07/11 04:37:25;;;;;;;8.65;6.70;;;24.90;50.60;;;;;;6113578;23;114369;-78
2023/07/11 04:39:52;;;;;;;9.60;7.85;;;24.90;51.00;;;;;;6111842;23;115139;-78
2023/07/11 04:42:20;;;;;;;8.38;7.00;;;24.90;50.80;;;;;;6113571;23;114527;-77
2023/07/11 04:44:53;;;;;;;7.82;6.95;;;24.80;50.50;;;;;;6114743;23;114157;-78
2023/07/11 04:47:20;;;;;;;8.90;7.20;;;24.80;50.80;;;;;;6114743;23;114069;-78
2023/07/11 04:49:48;;;;;;;9.25;7.25;;;24.80;50.80;;;;;;6112785;23;115084;-78
2023/07/11 04:52:18;;;;;;;8.43;7.20;;;25.00;50.70;;;;;;6113162;23;114627;-78
2023/07/11 04:54:45;;;;;;;8.23;6.70;;;25.10;50.40;;;;;;6138086;22;114072;-77
2023/07/11 04:57:12;;;;;;;10.70;7.20;;;25.20;50.30;;;;;;6115039;23;114314;-77
2023/07/11 04:59:39;;;;;;;10.63;6.90;;;25.10;50.20;;;;;;6110937;23;118442;-77
2023/07/11 05:02:06;;;;;;;10.95;7.20;;;25.20;50.20;;;;;;6111443;23;114189;-77
2023/07/11 05:04:35;;;;;;;9.27;6.70;;;25.30;50.00;;;;;;6112473;23;114241;-77
2023/07/11 05:07:04;;;;;;;9.98;6.95;;;25.40;49.90;;;;;;6113453;23;114140;-77
2023/07/11 05:09:31;;;;;;;11.63;6.55;;;25.50;49.40;;;;;;6114563;23;114886;-77
2023/07/11 05:12:01;;;;;;;9.40;6.93;;;25.60;49.30;;;;;;6112188;23;118061;-78
2023/07/11 05:14:28;;;;;;;8.63;6.47;;;25.60;49.00;;;;;;6114573;23;114234;-78
2023/07/11 05:16:56;;;;;;;11.48;8.52;;;25.60;48.80;;;;;;6112930;23;114471;-79
2023/07/11 05:19:24;;;;;;;13.93;7.40;;;25.80;48.30;;;;;;6112978;23;114786;-77
2023/07/11 05:21:51;;;;;;;8.75;6.68;;;25.80;48.60;;;;;;6111343;23;117823;-78
2023/07/11 05:24:18;;;;;;;9.38;6.32;;;25.80;48.00;;;;;;6114435;23;113946;-77
2023/07/11 05:26:45;;;;;;;10.00;6.43;;;25.70;48.10;;;;;;6113937;23;114681;-78
2023/07/11 05:29:12;;;;;;;9.88;7.38;;;25.60;48.80;;;;;;6087401;23;116023;-78
2023/07/11 05:31:39;;;;;;;10.50;6.50;;;25.70;48.00;;;;;;6113251;23;115113;-78
2023/07/11 05:34:06;;;;;;;10.02;7.72;;;25.60;48.50;;;;;;6113917;23;114060;-77
2023/07/11 05:36:34;;;;;;;11.55;7.35;;;25.70;48.30;;;;;;6115261;23;114079;-77
2023/07/11 05:39:10;;;;;;;10.55;7.03;;;25.80;47.80;;;;;;6114064;23;115011;-78
2023/07/11 05:41:38;;;;;;;8.93;6.10;;;25.80;47.30;;;;;;6112888;23;114560;-78
2023/07/11 05:44:05;;;;;;;8.10;6.60;;;25.70;47.90;;;;;;6113219;23;114126;-78
2023/07/11 05:46:32;;;;;;;8.40;6.47;;;25.80;48.00;;;;;;6113582;22;114370;-78
2023/07/11 05:49:00;;;;;;;6.72;5.97;;;25.80;47.50;;;;;;6111117;23;114799;-78
2023/07/11 05:51:29;;;;;;;7.72;5.70;;;25.90;47.20;;;;;;6110908;23;117998;-78
2023/07/11 05:53:56;;;;;;;8.48;6.47;;;26.10;47.30;;;;;;6136851;22;114219;-78
2023/07/11 05:56:24;;;;;;;7.75;6.40;;;26.20;47.00;;;;;;6113462;23;114107;-78
2023/07/11 05:58:52;;;;;;;9.25;5.55;;;26.30;47.00;;;;;;6112257;23;116791;-79
2023/07/11 06:01:24;;;;;;;7.50;5.70;;;26.40;46.50;;;;;;6109929;23;115165;-78
2023/07/11 06:04:02;;;;;;;7.80;5.72;;;26.40;45.70;;;;;;6113421;23;114442;-78
2023/07/11 06:06:29;;;;;;;7.40;5.82;;;26.30;45.50;;;;;;6113193;23;114394;-78
2023/07/11 06:08:57;;;;;;;6.88;5.28;;;26.40;45.60;;;;;;6085561;23;116516;-78
2023/07/11 06:11:24;;;;;;;8.63;6.35;;;26.50;45.20;;;;;;6110543;23;114564;-77
2023/07/11 06:13:52;;;;;;;6.80;5.30;;;26.40;45.20;;;;;;6112066;23;114356;-77
2023/07/11 06:16:23;;;;;;;6.10;5.50;;;26.30;45.30;;;;;;6113469;23;114356;-78
2023/07/11 06:18:52;;;;;;;8.63;6.55;;;26.30;45.50;;;;;;6111316;23;115389;-78
2023/07/11 06:21:19;;;;;;;9.60;6.15;;;26.30;45.80;;;;;;6110886;23;115176;-78
2023/07/11 06:23:47;;;;;;;9.98;5.85;;;26.30;45.30;;;;;;6111794;23;114266;-78
2023/07/11 06:26:14;;;;;;;7.25;5.82;;;26.40;45.30;;;;;;6112210;23;114519;-78
2023/07/11 06:28:42;;;;;;;6.95;5.82;;;26.50;45.00;;;;;;6110396;23;114925;-78
2023/07/11 06:31:10;;;;;;;8.73;5.88;;;26.60;45.20;;;;;;6111897;23;116254;-78
2023/07/11 06:33:38;;;;;;;7.57;5.53;;;26.70;44.50;;;;;;6111265;23;114315;-77
2023/07/11 06:36:06;;;;;;;9.35;6.07;;;26.80;44.80;;;;;;6136922;22;114283;-78
2023/07/11 06:38:34;;;;;;;7.53;5.38;;;26.90;44.30;;;;;;6110399;23;114955;-78
2023/07/11 06:41:02;;;;;;;8.95;5.38;;;27.00;44.00;;;;;;6111961;23;114713;-78
2023/07/11 06:43:30;;;;;;;7.60;4.90;;;27.00;43.60;;;;;;6111487;23;114550;-77
2023/07/11 06:45:59;;;;;;;9.85;6.20;;;27.00;43.90;;;;;;6112442;22;114635;-78
2023/07/11 06:48:29;;;;;;;7.28;5.25;;;27.10;43.80;;;;;;6113030;22;116715;-79
2023/07/11 06:51:00;;;;;;;7.85;5.25;;;27.10;43.50;;;;;;6113440;23;114552;-78
2023/07/11 06:53:30;;;;;;;10.13;5.25;;;27.20;43.50;;;;;;6113803;23;114157;-77
2023/07/11 06:55:58;;;;;;;9.13;5.38;;;27.30;43.40;;;;;;6114655;23;114216;-78
2023/07/11 06:58:26;;;;;;;6.55;5.10;;;27.30;43.90;;;;;;6110861;23;115580;-78
2023/07/11 07:01:04;;;;;;;8.95;5.32;;;27.50;43.40;;;;;;6111754;23;115789;-79
2023/07/11 07:03:39;;;;;;;8.77;5.68;;;27.60;42.70;;;;;;6112074;23;114292;-79
2023/07/11 07:06:11;;;;;;;9.45;5.22;;;27.60;42.40;;;;;;6114312;22;113989;-77
2023/07/11 07:08:38;;;;;;;6.85;5.28;;;27.70;41.70;;;;;;6111494;23;116735;-78
2023/07/11 07:11:05;;;;;;;7.85;5.10;;;27.70;41.90;;;;;;6111519;23;115299;-78
2023/07/11 07:13:33;;;;;;;8.07;5.20;;;27.80;42.00;;;;;;6114161;23;114083;-78
2023/07/11 07:16:02;;;;;;;7.72;4.95;;;27.90;41.70;;;;;;6114634;23;114161;-78
2023/07/11 07:18:32;;;;;;;6.72;4.57;;;27.90;42.00;;;;;;6112732;23;117031;-78
2023/07/11 07:21:01;;;;;;;6.10;4.72;;;28.00;41.70;;;;;;6112939;23;114803;-78
2023/07/11 07:23:28;;;;;;;7.60;4.32;;;28.10;41.40;;;;;;6113719;23;114096;-78
2023/07/11 07:25:58;;;;;;;8.52;4.95;;;28.10;41.20;;;;;;6114055;22;114547;-78
2023/07/11 07:28:25;;;;;;;7.93;5.72;;;28.10;40.70;;;;;;6112675;23;115417;-78
2023/07/11 07:30:53;;;;;;;6.80;4.50;;;28.10;40.80;;;;;;6111474;23;114598;-78
2023/07/11 07:33:23;;;;;;;6.13;4.40;;;27.90;40.20;;;;;;6113443;23;114501;-78
2023/07/11 07:35:55;;;;;;;7.93;4.97;;;27.80;41.20;;;;;;6112765;23;114157;-78
2023/07/11 07:38:27;;;;;;;8.27;5.05;;;27.80;41.10;;;;;;6111541;23;115002;-77
2023/07/11 07:40:57;;;;;;;7.30;4.72;;;27.60;41.60;;;;;;6113607;23;114578;-78
2023/07/11 07:43:26;;;;;;;5.18;4.40;;;27.60;41.60;;;;;;6088056;23;114220;-78
2023/07/11 07:45:54;;;;;;;6.97;5.35;;;27.60;41.30;;;;;;6114247;23;114128;-78
2023/07/11 07:48:22;;;;;;;9.00;4.97;;;27.60;41.10;;;;;;6112224;23;115453;-80
2023/07/11 07:50:49;;;;;;;8.32;6.15;;;27.60;41.00;;;;;;6111583;23;114579;-79
2023/07/11 07:53:16;;;;;;;5.80;4.57;;;27.60;41.50;;;;;;6137497;22;114391;-79
2023/07/11 07:55:43;;;;;;;5.78;4.10;;;27.40;41.20;;;;;;6112331;23;114222;-78
2023/07/11 07:58:13;;;;;;;8.27;4.82;;;27.30;41.50;;;;;;6112826;23;114994;-78
2023/07/11 08:00:47;;;;;;;6.13;4.15;;;27.10;42.10;;;;;;6111773;23;114632;-77
2023/07/11 08:03:14;;;;;;;6.28;4.22;;;27.10;41.90;;;;;;6114151;23;114055;-78
2023/07/11 08:05:41;;;;;;;7.07;3.83;;;27.20;41.90;;;;;;6114477;23;114311;-77
2023/07/11 08:08:09;;;;;;;7.82;4.38;;;27.30;41.70;;;;;;6086643;23;118351;-79
2023/07/11 08:10:36;;;;;;;7.47;4.15;;;27.40;41.70;;;;;;6112522;23;116014;-78
2023/07/11 08:13:04;;;;;;;5.45;3.92;;;27.40;41.60;;;;;;6113407;23;114230;-78
2023/07/11 08:15:31;;;;;;;6.30;4.05;;;27.60;41.50;;;;;;6114018;23;114073;-79
2023/07/11 08:17:58;;;;;;;8.15;4.20;;;27.60;40.60;;;;;;6112888;23;116611;-77
2023/07/11 08:20:26;;;;;;;5.78;3.90;;;27.60;39.90;;;;;;6111301;23;114397;-78
2023/07/11 08:22:54;;;;;;;6.13;3.90;;;27.50;41.00;;;;;;6113980;23;114445;-77
2023/07/11 08:25:21;;;;;;;6.80;3.67;;;27.40;40.20;;;;;;6114127;23;114128;-78
2023/07/11 08:27:48;;;;;;;9.98;4.35;;;27.40;40.50;;;;;;6112719;23;114941;-78
2023/07/11 08:30:16;;;;;;;6.38;3.92;;;27.40;40.90;;;;;;6113501;23;114748;-78
2023/07/11 08:32:43;;;;;;;6.65;3.92;;;27.40;40.60;;;;;;6112685;23;114383;-78
2023/07/11 08:35:10;;;;;;;6.72;4.10;;;27.50;40.20;;;;;;6137606;22;114395;-79
2023/07/11 08:37:37;;;;;;;6.00;4.10;;;27.60;40.20;;;;;;6111097;23;115553;-79
2023/07/11 08:40:05;;;;;;;6.97;4.10;;;27.70;40.10;;;;;;6113441;23;114547;-78
2023/07/11 08:42:40;;;;;;;5.18;3.97;;;27.70;40.40;;;;;;6114081;23;114301;-78
2023/07/11 08:45:25;;;;;;;6.10;3.78;;;27.70;40.60;;;;;;6112902;23;113985;-78
2023/07/11 08:48:14;;;;;;;4.90;3.67;;;27.60;40.10;;;;;;6114618;22;116504;-79
2023/07/11 08:51:05;;;;;;;5.13;3.38;;;27.60;40.10;;;;;;6112993;23;115605;-77
2023/07/11 08:53:35;;;;;;;6.18;3.75;;;27.80;39.40;;;;;;6112610;23;114251;-78
2023/07/11 08:56:16;;;;;;;5.32;3.20;;;27.80;39.20;;;;;;6113562;22;114199;-79
2023/07/11 08:58:44;;;;;;;7.38;3.90;;;27.80;40.40;;;;;;6111098;23;117204;-79
2023/07/11 09:01:37;;;;;;;4.05;3.10;;;27.90;39.20;;;;;;6111446;23;115038;-79
2023/07/11 09:04:04;;;;;;;6.00;3.55;;;28.00;39.50;;;;;;6105953;23;114378;-78
2023/07/11 09:06:43;;;;;;;5.85;3.10;;;27.80;39.20;;;;;;6112504;23;114443;-77
2023/07/11 09:09:10;;;;;;;5.60;3.20;;;27.80;37.60;;;;;;6110972;23;116680;-78
2023/07/11 09:11:48;;;;;;;6.95;3.30;;;27.70;37.70;;;;;;6111263;23;115746;-79
2023/07/11 09:14:47;;;;;;;6.88;4.10;;;27.80;38.50;;;;;;6112605;23;114139;-79
2023/07/11 09:17:41;;;;;;;6.30;3.22;;;27.80;38.90;;;;;;6112172;23;114279;-78
2023/07/11 09:20:27;;;;;;;;;;;27.80;38.20;;;;;;6116078;22;114821;-79
2023/07/11 09:22:57;;;;;;;7.22;3.58;;;27.70;39.10;;;;;;6113113;23;114794;-76
2023/07/11 09:25:34;;;;;;;5.60;3.50;;;27.60;39.10;;;;;;6112244;23;114343;-77
2023/07/11 09:28:05;;;;;;;5.43;3.13;;;27.50;39.10;;;;;;6112389;23;114073;-78
2023/07/11 09:30:42;;;;;;;4.28;2.70;;;27.40;38.00;;;;;;6110498;23;116591;-77
2023/07/11 09:33:15;;;;;;;4.20;2.75;;;27.30;38.20;;;;;;6135970;22;115878;-79
2023/07/11 09:35:44;;;;;;;4.80;2.70;;;27.50;38.20;;;;;;6113703;23;114317;-78
2023/07/11 09:38:34;;;;;;;4.80;3.28;;;27.60;38.70;;;;;;6112435;23;114213;-78
2023/07/11 09:41:08;;;;;;;5.78;3.20;;;27.80;38.50;;;;;;6104836;23;114874;-78
2023/07/11 09:43:36;;;;;;;5.30;3.17;;;27.90;38.70;;;;;;6111356;23;114742;-78
2023/07/11 09:46:13;;;;;;;5.18;2.90;;;28.00;38.50;;;;;;6113019;23;114866;-79
2023/07/11 09:48:40;;;;;;;6.18;3.60;;;28.10;37.90;;;;;;6113377;23;114275;-78
2023/07/11 09:51:37;;;;;;;4.78;3.00;;;28.10;38.10;;;;;;6111823;23;115066;-77
2023/07/11 09:54:20;;;;;;;5.23;3.10;;;28.30;37.50;;;;;;6111323;23;115114;-79
2023/07/11 09:56:48;;;;;;;4.75;2.72;;;28.20;37.00;;;;;;6111776;23;114136;-78
2023/07/11 09:59:16;;;;;;;5.53;3.05;;;28.10;36.70;;;;;;6112262;23;114223;-79
2023/07/11 10:01:46;;;;;;;6.22;2.83;;;28.10;37.20;;;;;;6112719;23;114968;-77
2023/07/11 10:04:24;;;;;;;4.03;2.80;;;28.10;37.60;;;;;;6112828;23;114644;-79
2023/07/11 10:07:00;;;;;;;3.45;2.60;;;28.20;36.70;;;;;;6137392;22;114195;-78
2023/07/11 10:09:29;;;;;;;4.75;3.15;;;28.20;36.30;;;;;;6113389;23;114051;-78
2023/07/11 10:11:59;;;;;;;4.50;2.85;;;28.10;36.50;;;;;;6111914;23;117582;-78
2023/07/11 10:14:41;;;;;;;3.90;2.42;;;28.00;35.10;;;;;;6110309;23;117119;-77
2023/07/11 10:17:20;;;;;;;4.90;2.42;;;28.00;35.20;;;;;;6113201;23;114090;-78
2023/07/11 10:19:50;;;;;;;5.90;2.30;;;28.10;34.50;;;;;;6113408;23;114292;-77
2023/07/11 10:22:20;;;;;;;3.28;2.10;;;28.00;34.10;;;;;;6112737;23;114857;-78
2023/07/11 10:24:48;;;;;;;7.43;2.30;;;27.90;34.10;;;;;;6087587;23;115798;-78
2023/07/11 10:27:23;;;;;;;4.13;2.63;;;27.80;34.20;;;;;;6087991;23;114017;-78
2023/07/11 10:29:52;;;;;;;5.18;2.60;;;27.80;34.70;;;;;;6113180;23;114434;-78
2023/07/11 10:32:36;;;;;;;4.03;2.55;;;27.80;34.50;;;;;;6111683;23;114905;-78
2023/07/11 10:35:08;;;;;;;5.15;2.45;;;27.80;34.50;;;;;;6111131;23;114547;-78
2023/07/11 10:37:46;;;;;;;3.97;2.15;;;27.80;34.80;;;;;;6112886;23;114127;-78
2023/07/11 10:40:28;;;;;;;4.53;2.83;;;27.90;34.80;;;;;;6113943;22;114796;-78
2023/07/11 10:43:03;;;;;;;4.18;2.20;;;27.90;34.60;;;;;;6111701;23;115562;-78
2023/07/11 10:45:38;;;;;;;3.85;2.17;;;28.00;34.30;;;;;;6113113;22;115612;-78
2023/07/11 10:48:11;;;;;;;4.35;2.42;;;27.90;34.50;;;;;;6112984;23;114346;-78
2023/07/11 10:50:49;;;;;;;6.85;2.55;;;28.00;34.40;;;;;;6114583;22;114176;-78
2023/07/11 10:53:22;;;;;;;5.20;2.70;;;28.10;34.40;;;;;;6112295;23;116107;-78
2023/07/11 10:55:52;;;;;;;;;;;28.10;34.70;;;;;;6113516;23;114569;-79
2023/07/11 10:58:22;;;;;;;4.43;2.25;;;28.00;35.50;;;;;;6115820;23;113948;-78
2023/07/11 11:00:58;;;;;;;3.70;2.50;;;28.00;34.80;;;;;;6113552;23;114342;-78
2023/07/11 11:03:43;;;;;;;4.88;2.08;;;28.10;33.60;;;;;;6112428;23;114809;-78
2023/07/11 11:06:39;;;;;;;4.40;2.10;;;28.10;33.80;;;;;;6114118;22;115255;-78
2023/07/11 11:09:11;;;;;;;5.82;3.08;;;28.20;34.60;;;;;;6114589;23;114115;-78
2023/07/11 11:11:38;;;;;;;4.60;2.47;;;28.30;34.10;;;;;;6113523;23;114462;-78
2023/07/11 11:14:34;;;;;;;5.72;2.55;;;28.30;34.70;;;;;;6113422;23;115214;-78
2023/07/11 11:17:21;;;;;;;4.50;2.28;;;28.40;35.00;;;;;;6087646;23;115921;-79
2023/07/11 11:19:58;;;;;;;4.25;2.30;;;28.40;34.30;;;;;;6137951;22;114559;-77
2023/07/11 11:22:36;;;;;;;4.88;2.00;;;28.40;34.50;;;;;;6113277;23;114141;-77
2023/07/11 11:25:21;;;;;;;4.70;2.40;;;28.40;33.50;;;;;;6112518;23;116250;-77
2023/07/11 11:28:10;;;;;;;4.30;2.03;;;28.30;33.60;;;;;;6112167;23;115099;-77
2023/07/11 11:30:51;;;;;;;6.90;2.45;;;28.50;34.00;;;;;;6088219;23;114212;-77
2023/07/11 11:33:27;;;;;;;3.97;2.17;;;28.50;33.30;;;;;;6113182;23;114260;-77
2023/07/11 11:36:08;;;;;;;3.35;2.00;;;28.50;32.80;;;;;;6112527;22;117006;-78
2023/07/11 11:38:45;;;;;;;3.80;1.95;;;28.40;33.20;;;;;;6112480;23;114651;-78
2023/07/11 11:41:14;;;;;;;5.88;2.20;;;28.50;33.30;;;;;;6137388;22;114077;-78
2023/07/11 11:43:42;;;;;;;4.13;1.77;;;28.50;32.60;;;;;;6113228;23;114061;-78
2023/07/11 11:46:12;;;;;;;4.75;2.15;;;28.40;32.60;;;;;;6086943;23;118628;-79
2023/07/11 11:48:42;;;;;;;3.85;1.90;;;28.30;32.70;;;;;;6112107;23;114639;-79
2023/07/11 11:51:15;;;;;;;4.47;2.10;;;28.30;32.90;;;;;;6112696;23;114273;-79
2023/07/11 11:53:45;;;;;;;3.92;1.95;;;28.30;33.00;;;;;;6063552;23;114401;-78
2023/07/11 11:56:17;;;;;;;4.50;2.00;;;28.30;32.90;;;;;;6110665;23;114748;-78
2023/07/11 11:58:58;;;;;;;3.58;2.28;;;28.40;32.90;;;;;;6111645;23;118131;-78
2023/07/11 12:01:46;;;;;;;4.07;2.28;;;28.40;32.60;;;;;;6112554;23;114176;-78
2023/07/11 12:04:29;;;;;;;4.97;2.20;;;28.40;33.00;;;;;;6112742;23;114378;-77
2023/07/11 12:07:26;;;;;;;3.70;1.90;;;28.40;32.60;;;;;;6135334;22;115022;-79
2023/07/11 12:09:53;;;;;;;5.00;2.58;;;28.40;32.30;;;;;;6111295;23;114554;-78
2023/07/11 12:12:43;;;;;;;4.18;2.72;;;28.30;32.00;;;;;;6114062;22;114050;-78
2023/07/11 12:15:10;;;;;;;4.05;2.63;;;28.30;31.80;;;;;;6104698;23;114482;-79
2023/07/11 12:17:40;;;;;;;4.68;2.40;;;28.10;32.10;;;;;;6112838;23;114922;-78
2023/07/11 12:20:08;;;;;;;4.65;2.10;;;28.10;32.90;;;;;;6112902;23;114646;-79
2023/07/11 12:22:39;;;;;;;5.05;2.47;;;28.10;32.70;;;;;;6114536;23;114020;-78
2023/07/11 12:25:06;;;;;;;4.55;2.28;;;28.10;33.00;;;;;;6114611;23;114437;-78
2023/07/11 12:27:33;;;;;;;3.78;2.03;;;28.00;33.00;;;;;;6113147;23;115231;-78
2023/07/11 12:30:21;;;;;;;5.43;2.28;;;28.10;33.00;;;;;;6113147;23;114660;-78
2023/07/11 12:32:50;;;;;;;5.55;2.78;;;28.20;32.50;;;;;;6103847;23;115676;-78
2023/07/11 12:35:23;;;;;;;6.00;2.97;;;28.30;32.50;;;;;;6114711;22;114283;-78
2023/07/11 12:38:02;;;;;;;4.07;2.10;;;28.30;32.30;;;;;;6112567;23;115058;-78
2023/07/11 12:41:06;;;;;;;4.55;2.22;;;28.50;32.40;;;;;;6136420;22;115034;-78
2023/07/11 12:43:36;;;;;;;4.30;1.80;;;28.50;32.00;;;;;;6113095;23;114238;-79
2023/07/11 12:46:34;;;;;;;3.38;2.03;;;28.50;31.70;;;;;;6112534;23;114157;-79
2023/07/11 12:49:03;;;;;;;3.50;2.00;;;28.60;32.30;;;;;;6111099;23;114826;-77
2023/07/11 12:51:36;;;;;;;4.93;2.47;;;28.60;31.90;;;;;;6111759;23;115781;-78
2023/07/11 12:54:09;;;;;;;3.38;1.88;;;28.60;32.20;;;;;;6112481;23;115062;-78